Pagina principale
METAR-TAF:

METAR-TAF

Aeroporti :

Aeroporto militare

Salon-de-Provence, Francia

latitudine: 43-36N, longitudine: 005-06E, altezza: 59 m

Osservazione

Il bollettino è stato emesso 24 minuti fa, alle 19:30 UTC
Vento 3 kt da sud-est
Temperature 13°C
Umidità 82%
Pressione 1027 hPa
Visibilità 10 km o più
Nuvoloso ad un'altezza di 2300 ft
Cielo coperto ad un'altezza di 3800 ft

METAR: LFMY 161930Z AUTO 14003KT 9999 BKN023 OVC038 13/10 Q1027

Ora: 20:54 (19:54 UTC)


TAF: mancante

Osservazioni e previsioni meteorologiche di più di 4000 aeroporti (messaggi METAR e TAF).

Le stazioni disponibili sono rappresentate dai dischi gialli e rossi sulla carta.

Puntare il mouse per vedere il nome della stazione.

Clicca sopra per visualizzare le osservazioni e previsioni meteorologiche.

Per cambiare la mappa : fare clic sui pulsanti verdi con una croce nera per ingrandire, il pulsante verde con un trattino per diminuire, o sulla freccia verde per le mappe adiacenti.


METAR-TAF: